createdAt,value
2018-03-24T00:00:01.563Z,13.47
2018-03-24T00:02:27.740Z,12.07
2018-03-24T00:04:53.835Z,13.30
2018-03-24T00:07:20.746Z,12.20
2018-03-24T00:09:46.903Z,13.10
2018-03-24T00:12:13.028Z,11.03
2018-03-24T00:14:39.213Z,13.43
2018-03-24T00:17:09.357Z,13.37
2018-03-24T00:19:35.605Z,13.23
2018-03-24T00:22:01.718Z,12.63
2018-03-24T00:24:27.892Z,11.90
2018-03-24T00:26:54.758Z,12.90
2018-03-24T00:29:20.876Z,11.50
2018-03-24T00:31:47.968Z,11.33
2018-03-24T00:34:14.197Z,13.03
2018-03-24T00:36:40.317Z,12.37
2018-03-24T00:39:07.213Z,11.77
2018-03-24T00:41:33.371Z,12.50
2018-03-24T00:43:59.479Z,13.33
2018-03-24T00:46:25.596Z,12.70
2018-03-24T00:48:51.723Z,11.90
2018-03-24T00:51:18.630Z,12.90
2018-03-24T00:53:44.793Z,11.70
2018-03-24T00:56:10.966Z,11.87
2018-03-24T00:58:37.822Z,12.30
2018-03-24T01:01:04.695Z,12.70
2018-03-24T01:03:30.915Z,13.60
2018-03-24T01:05:57.779Z,13.83
2018-03-24T01:08:23.907Z,13.80
2018-03-24T01:10:50.030Z,12.70
2018-03-24T01:13:16.147Z,12.50
2018-03-24T01:15:42.295Z,13.50
2018-03-24T01:18:08.438Z,13.70
2018-03-24T01:20:34.549Z,13.80
2018-03-24T01:23:00.667Z,13.50
2018-03-24T01:25:26.807Z,12.67
2018-03-24T01:27:52.951Z,12.03
2018-03-24T01:30:19.057Z,13.43
2018-03-24T01:32:45.931Z,12.73
2018-03-24T01:35:12.051Z,15.07
2018-03-24T01:37:38.219Z,14.33
2018-03-24T01:40:04.419Z,15.47
2018-03-24T01:42:30.550Z,13.90
2018-03-24T01:44:56.715Z,15.73
2018-03-24T01:47:22.856Z,16.30
2018-03-24T01:49:49.779Z,15.20
2018-03-24T01:52:15.924Z,14.60
2018-03-24T01:54:42.040Z,14.37
2018-03-24T01:57:08.199Z,13.73
2018-03-24T01:59:34.302Z,13.80
2018-03-24T02:02:00.443Z,14.30
2018-03-24T02:04:26.543Z,14.57
2018-03-24T02:06:53.415Z,14.83
2018-03-24T02:09:19.522Z,14.30
2018-03-24T02:11:45.662Z,15.90
2018-03-24T02:14:11.766Z,14.43
2018-03-24T02:16:37.879Z,14.80
2018-03-24T02:19:03.992Z,14.10
2018-03-24T02:21:33.776Z,15.70
2018-03-24T02:23:59.887Z,15.23
2018-03-24T02:26:26.009Z,13.97
2018-03-24T02:28:52.129Z,14.63
2018-03-24T02:31:18.262Z,15.80
2018-03-24T02:33:45.141Z,15.03
2018-03-24T02:36:11.272Z,16.33
2018-03-24T02:38:37.402Z,16.13
2018-03-24T02:41:03.547Z,16.80
2018-03-24T02:43:30.420Z,17.57
2018-03-24T02:45:56.541Z,15.90
2018-03-24T02:48:23.466Z,15.60
2018-03-24T02:50:49.567Z,17.10
2018-03-24T02:53:15.739Z,18.20
2018-03-24T02:55:41.811Z,18.30
2018-03-24T02:58:07.960Z,17.77
2018-03-24T03:00:34.097Z,17.73
2018-03-24T03:03:00.956Z,17.80
2018-03-24T03:05:27.092Z,18.57
2018-03-24T03:07:53.194Z,17.23
2018-03-24T03:10:19.373Z,18.83
2018-03-24T03:12:45.488Z,17.57
2018-03-24T03:15:12.372Z,18.07
2018-03-24T03:17:38.482Z,18.57
2018-03-24T03:20:04.632Z,16.50
2018-03-24T03:22:31.515Z,16.13
2018-03-24T03:24:57.658Z,16.47
2018-03-24T03:27:23.754Z,17.73
2018-03-24T03:29:50.654Z,16.60
2018-03-24T03:32:17.620Z,17.30
2018-03-24T03:34:43.752Z,17.87
2018-03-24T03:37:09.891Z,17.90
2018-03-24T03:39:36.014Z,16.53
2018-03-24T03:42:02.177Z,17.97
2018-03-24T03:44:28.299Z,18.40
2018-03-24T03:46:54.426Z,18.27
2018-03-24T03:49:20.555Z,17.63
2018-03-24T03:51:46.710Z,18.13
2018-03-24T03:54:12.838Z,18.43
2018-03-24T03:56:38.946Z,16.83
2018-03-24T03:59:05.085Z,19.00
2018-03-24T04:01:31.194Z,16.00
2018-03-24T04:03:57.351Z,16.80
2018-03-24T04:06:23.458Z,18.90
2018-03-24T04:08:49.618Z,19.10
2018-03-24T04:11:15.752Z,16.60
2018-03-24T04:13:41.886Z,15.17
2018-03-24T04:16:08.028Z,15.90
2018-03-24T04:18:34.237Z,15.43
2018-03-24T04:21:00.423Z,17.47
2018-03-24T04:23:26.567Z,15.40
2018-03-24T04:25:52.720Z,15.80
2018-03-24T04:28:18.871Z,17.77
2018-03-24T04:30:44.978Z,17.70
2018-03-24T04:33:11.098Z,17.80
2018-03-24T04:35:37.286Z,17.17
2018-03-24T04:38:03.395Z,18.33
2018-03-24T04:40:29.572Z,17.35
2018-03-24T04:42:56.411Z,18.50
2018-03-24T04:45:22.521Z,16.30
2018-03-24T04:47:48.667Z,19.00
2018-03-24T04:50:14.840Z,16.30
2018-03-24T04:52:41.691Z,17.63
2018-03-24T04:55:07.844Z,16.70
2018-03-24T04:57:33.948Z,15.37
2018-03-24T05:00:00.085Z,16.37
2018-03-24T05:02:26.244Z,17.00
2018-03-24T05:04:52.367Z,18.27
2018-03-24T05:07:18.473Z,16.87
2018-03-24T05:09:44.642Z,18.00
2018-03-24T05:12:10.749Z,18.20
2018-03-24T05:14:36.851Z,18.03
2018-03-24T05:17:03.022Z,19.10
2018-03-24T05:19:29.884Z,19.07
2018-03-24T05:21:55.986Z,18.80
2018-03-24T05:24:22.911Z,18.03
2018-03-24T05:26:49.821Z,18.53
2018-03-24T05:29:15.949Z,17.47
2018-03-24T05:31:42.112Z,17.30
2018-03-24T05:34:08.359Z,18.80
2018-03-24T05:36:34.560Z,16.07
2018-03-24T05:39:00.744Z,17.30
2018-03-24T05:41:26.851Z,19.70
2018-03-24T05:43:52.975Z,18.73
2018-03-24T05:46:19.846Z,21.10
2018-03-24T05:48:46.013Z,21.07
2018-03-24T05:51:12.070Z,21.80
2018-03-24T05:53:38.166Z,20.40
2018-03-24T05:56:04.347Z,22.60
2018-03-24T05:58:30.505Z,23.87
2018-03-24T06:00:56.651Z,22.50
2018-03-24T06:03:23.603Z,20.70
2018-03-24T06:05:50.489Z,20.70
2018-03-24T06:08:16.677Z,19.00
2018-03-24T06:10:42.836Z,17.70
2018-03-24T06:13:08.988Z,18.80
2018-03-24T06:15:35.902Z,18.83
2018-03-24T06:18:02.029Z,19.83
2018-03-24T06:20:29.235Z,16.23
2018-03-24T06:22:55.368Z,17.33
2018-03-24T06:25:21.530Z,16.90
2018-03-24T06:27:48.377Z,19.03
2018-03-24T06:30:17.382Z,16.77
2018-03-24T06:32:43.531Z,17.53
2018-03-24T06:35:10.445Z,18.40
2018-03-24T06:37:36.572Z,16.73
2018-03-24T06:40:02.772Z,17.30
2018-03-24T06:42:28.882Z,17.97
2018-03-24T06:44:55.099Z,19.30
2018-03-24T06:47:21.903Z,18.60
2018-03-24T06:49:48.774Z,18.03
2018-03-24T06:52:14.902Z,17.77
2018-03-24T06:54:41.770Z,17.50
2018-03-24T06:57:07.915Z,19.57
2018-03-24T06:59:34.103Z,18.90
2018-03-24T07:02:00.215Z,19.57
2018-03-24T07:04:26.336Z,20.43
2018-03-24T07:06:52.520Z,21.23
2018-03-24T07:09:18.664Z,20.77
2018-03-24T07:11:44.890Z,20.67
2018-03-24T07:14:11.043Z,20.90
2018-03-24T07:16:37.263Z,20.50
2018-03-24T07:19:03.458Z,21.10
2018-03-24T07:21:30.345Z,20.00
2018-03-24T07:23:56.611Z,23.40
2018-03-24T07:26:22.716Z,21.17
2018-03-24T07:28:48.807Z,19.40
2018-03-24T07:31:14.991Z,21.13
2018-03-24T07:33:41.103Z,19.40
2018-03-24T07:36:08.043Z,21.43
2018-03-24T07:38:34.195Z,20.60
2018-03-24T07:41:00.357Z,20.03
2018-03-24T07:43:26.902Z,19.83
2018-03-24T07:45:53.220Z,23.20
2018-03-24T07:48:19.457Z,20.40
2018-03-24T07:50:45.724Z,20.30
2018-03-24T07:53:11.914Z,20.00
2018-03-24T07:55:45.647Z,19.40
2018-03-24T07:58:12.207Z,22.60
2018-03-24T08:00:38.498Z,21.03
2018-03-24T08:03:04.777Z,18.80
2018-03-24T08:05:31.728Z,20.50
2018-03-24T08:08:16.945Z,19.80
2018-03-24T08:10:46.083Z,19.37
2018-03-24T08:13:12.797Z,19.70
2018-03-24T08:15:39.114Z,18.63
2018-03-24T08:18:05.243Z,20.97
2018-03-24T08:20:31.407Z,18.13
2018-03-24T08:22:57.531Z,18.57
2018-03-24T08:25:23.702Z,19.17
2018-03-24T08:27:49.801Z,17.77
2018-03-24T08:30:15.920Z,18.10
2018-03-24T08:32:42.054Z,18.80
2018-03-24T08:35:09.451Z,18.07
2018-03-24T08:37:36.273Z,17.57
2018-03-24T08:40:03.144Z,18.60
2018-03-24T08:42:29.262Z,18.70
2018-03-24T08:44:55.371Z,18.43
2018-03-24T08:47:21.496Z,19.30
2018-03-24T08:49:47.700Z,20.37
2018-03-24T08:52:13.899Z,18.77
2018-03-24T08:54:40.757Z,18.10
2018-03-24T08:57:06.912Z,17.00
2018-03-24T08:59:33.036Z,18.73
2018-03-24T09:02:00.320Z,18.47
2018-03-24T09:04:26.582Z,18.83
2018-03-24T09:06:52.837Z,18.03
2018-03-24T09:09:19.741Z,16.87
2018-03-24T09:11:46.599Z,17.10
2018-03-24T09:14:13.512Z,18.60
2018-03-24T09:16:39.685Z,16.90
2018-03-24T09:19:08.099Z,15.67
2018-03-24T09:21:34.467Z,17.67
2018-03-24T09:24:01.721Z,16.83
2018-03-24T09:26:27.911Z,16.87
2018-03-24T09:28:54.091Z,19.70
2018-03-24T09:31:20.939Z,19.27
2018-03-24T09:33:47.808Z,18.93
2018-03-24T09:36:13.967Z,20.20
2018-03-24T09:38:40.144Z,19.20
2018-03-24T09:41:06.251Z,16.83
2018-03-24T09:43:32.420Z,16.90
2018-03-24T09:45:59.340Z,17.73
2018-03-24T09:48:25.497Z,18.23
2018-03-24T09:50:51.655Z,16.23
2018-03-24T09:53:17.756Z,16.73
2018-03-24T09:55:43.859Z,20.17
2018-03-24T09:58:10.743Z,16.10
2018-03-24T10:00:36.895Z,15.53
2018-03-24T10:03:03.160Z,15.10
2018-03-24T10:05:31.567Z,16.07
2018-03-24T10:07:57.663Z,16.50
2018-03-24T10:10:23.822Z,18.07
2018-03-24T10:12:49.952Z,14.70
2018-03-24T10:15:16.175Z,15.23
2018-03-24T10:17:42.308Z,12.83
2018-03-24T10:20:10.596Z,12.60
2018-03-24T10:22:49.054Z,12.53
2018-03-24T10:25:15.220Z,11.30
2018-03-24T10:27:41.351Z,12.37
2018-03-24T10:30:07.504Z,13.40
2018-03-24T10:32:33.693Z,11.40
2018-03-24T10:35:04.812Z,12.10
2018-03-24T10:37:32.503Z,12.97
2018-03-24T10:39:58.712Z,14.20
2018-03-24T10:42:25.922Z,11.10
2018-03-24T10:44:52.215Z,13.33
2018-03-24T10:47:18.462Z,12.70
2018-03-24T10:49:44.580Z,12.10
2018-03-24T10:52:11.161Z,11.20
2018-03-24T10:54:46.726Z,7.53
2018-03-24T10:57:12.906Z,7.40
2018-03-24T10:59:45.306Z,8.10
2018-03-24T11:02:14.823Z,7.50
2018-03-24T11:04:44.218Z,9.47
2018-03-24T11:07:14.376Z,8.27
2018-03-24T11:12:43.988Z,8.47
2018-03-24T11:15:10.212Z,6.77
2018-03-24T11:17:41.182Z,6.60
2018-03-24T11:20:07.396Z,7.47
2018-03-24T11:22:33.606Z,9.00
2018-03-24T11:24:59.806Z,10.20
2018-03-24T11:27:26.141Z,9.10
2018-03-24T11:29:56.453Z,9.40
2018-03-24T11:32:25.022Z,9.60
2018-03-24T11:34:53.593Z,11.33
2018-03-24T11:39:52.144Z,11.60
2018-03-24T12:03:44.426Z,11.90
2018-03-24T12:06:10.663Z,9.50
2018-03-24T12:08:36.805Z,11.80
2018-03-24T12:11:03.434Z,11.57
2018-03-24T12:25:33.322Z,9.07
2018-03-24T12:27:59.688Z,9.60
2018-03-24T12:30:26.093Z,9.50
2018-03-24T12:32:53.108Z,8.83
2018-03-24T12:35:19.420Z,9.40
2018-03-24T12:37:45.694Z,9.30
2018-03-24T12:40:11.953Z,10.50
2018-03-24T12:42:38.966Z,9.70
2018-03-24T12:45:05.510Z,8.67
2018-03-24T12:47:32.352Z,8.83
2018-03-24T12:49:58.650Z,9.70
2018-03-24T12:52:24.960Z,9.67
2018-03-24T12:54:51.307Z,9.37
2018-03-24T12:57:17.561Z,8.93
2018-03-24T12:59:43.855Z,10.13
2018-03-24T13:02:10.074Z,9.43
2018-03-24T13:04:36.460Z,9.13
2018-03-24T13:07:02.791Z,9.83
2018-03-24T13:09:29.081Z,10.10
2018-03-24T13:11:55.531Z,9.20
2018-03-24T13:14:21.848Z,8.80
2018-03-24T13:16:48.092Z,9.40
2018-03-24T13:19:14.415Z,8.13
2018-03-24T13:21:40.704Z,10.27
2018-03-24T13:24:06.997Z,8.70
2018-03-24T13:26:34.060Z,9.77
2018-03-24T13:29:00.343Z,9.53
2018-03-24T13:31:26.574Z,8.80
2018-03-24T13:33:52.905Z,9.43
2018-03-24T13:36:19.180Z,9.63
2018-03-24T13:38:45.473Z,9.17
2018-03-24T13:41:11.878Z,9.10
2018-03-24T13:43:38.323Z,9.40
2018-03-24T13:46:05.405Z,9.00
2018-03-24T13:48:31.797Z,9.90
2018-03-24T13:50:58.036Z,10.13
2018-03-24T13:53:24.282Z,9.30
2018-03-24T13:55:51.496Z,8.97
2018-03-24T13:58:18.581Z,8.53
2018-03-24T14:00:44.870Z,9.90
2018-03-24T14:03:11.191Z,9.73
2018-03-24T14:05:37.478Z,8.73
2018-03-24T14:08:04.019Z,9.37
2018-03-24T14:10:30.304Z,10.20
2018-03-24T14:12:56.558Z,8.20
2018-03-24T14:15:22.861Z,8.73
2018-03-24T14:17:49.194Z,9.37
2018-03-24T14:20:16.183Z,9.50
2018-03-24T14:22:42.757Z,8.87
2018-03-24T14:25:09.075Z,9.27
2018-03-24T14:27:35.276Z,9.20
2018-03-24T14:30:02.337Z,10.40
2018-03-24T14:32:28.599Z,9.07
2018-03-24T14:34:55.748Z,9.80
2018-03-24T14:37:22.011Z,11.57
2018-03-24T14:39:48.362Z,10.87
2018-03-24T14:42:14.674Z,9.87
2018-03-24T14:44:41.693Z,9.07
2018-03-24T14:47:07.976Z,10.20
2018-03-24T14:49:34.315Z,9.37
2018-03-24T14:52:00.675Z,9.80
2018-03-24T14:54:30.955Z,9.17
2018-03-24T14:56:59.497Z,10.23
2018-03-24T14:59:25.899Z,10.57
2018-03-24T15:01:52.213Z,10.63
2018-03-24T15:04:18.516Z,9.97
2018-03-24T15:06:44.849Z,11.17
2018-03-24T15:09:12.969Z,10.27
2018-03-24T15:11:40.071Z,10.73
2018-03-24T15:14:06.530Z,9.80
2018-03-24T15:16:32.903Z,10.40
2018-03-24T15:19:00.036Z,10.40
2018-03-24T15:21:26.406Z,8.53
2018-03-24T15:23:54.558Z,10.43
2018-03-24T15:26:21.120Z,9.70
2018-03-24T15:28:59.651Z,9.40
2018-03-24T15:31:37.984Z,10.23
2018-03-24T19:46:18.429Z,11.07
2018-03-24T19:48:44.555Z,10.17
2018-03-24T19:51:10.684Z,10.10
2018-03-24T19:53:37.575Z,9.53
2018-03-24T19:56:03.737Z,11.50
2018-03-24T19:58:29.967Z,10.07
2018-03-24T20:00:56.119Z,10.00
2018-03-24T20:03:22.292Z,9.33
2018-03-24T20:05:48.374Z,11.20
2018-03-24T20:08:14.573Z,10.43
2018-03-24T20:10:43.153Z,9.30
2018-03-24T20:13:09.407Z,10.40
2018-03-24T20:15:35.595Z,10.70
2018-03-24T20:18:01.703Z,10.10
2018-03-24T20:20:27.818Z,13.63
2018-03-24T20:22:53.947Z,12.60
2018-03-24T20:25:20.087Z,12.07
2018-03-24T20:27:46.329Z,12.40
2018-03-24T20:30:13.207Z,16.20
2018-03-24T20:32:39.360Z,26.83
2018-03-24T20:38:08.982Z,27.97
2018-03-24T20:40:38.290Z,28.60
2018-03-24T20:43:04.602Z,28.90
2018-03-24T20:45:31.085Z,28.37
2018-03-24T20:47:57.488Z,33.57
2018-03-24T20:50:23.895Z,28.47
2018-03-24T20:52:50.338Z,29.27
2018-03-24T20:55:17.007Z,29.07
2018-03-24T20:57:44.838Z,28.97
2018-03-24T21:00:18.035Z,19.60
2018-03-24T21:02:44.325Z,20.07
2018-03-24T21:05:10.684Z,19.80
2018-03-24T21:07:37.091Z,18.40
2018-03-24T21:10:03.410Z,18.57
2018-03-24T21:12:29.815Z,15.70
2018-03-24T21:14:56.139Z,17.07
2018-03-24T21:17:22.531Z,14.10
2018-03-24T21:19:48.730Z,13.30
2018-03-24T21:22:15.023Z,12.70
2018-03-24T21:24:41.461Z,13.87
2018-03-24T21:27:07.787Z,14.17
2018-03-24T21:29:34.127Z,15.93
2018-03-24T21:32:01.507Z,15.50
2018-03-24T21:34:27.794Z,13.80
2018-03-24T21:36:54.397Z,13.13
2018-03-24T21:39:20.682Z,12.97
2018-03-24T21:41:47.059Z,14.53
2018-03-24T21:44:16.320Z,14.77
2018-03-24T21:46:42.825Z,12.90
2018-03-24T21:49:15.790Z,14.40
2018-03-24T21:51:42.131Z,13.73
2018-03-24T21:54:09.458Z,14.03
2018-03-24T21:56:35.904Z,14.60
2018-03-24T22:02:06.134Z,14.43
2018-03-24T22:04:33.068Z,14.20
2018-03-24T22:06:59.233Z,14.50
2018-03-24T22:09:25.471Z,12.97
2018-03-24T22:14:29.322Z,15.10
2018-03-24T22:16:56.278Z,17.57
2018-03-24T22:19:22.395Z,18.10
2018-03-24T22:21:48.664Z,17.17
2018-03-24T22:24:23.207Z,16.63
2018-03-24T22:26:49.955Z,17.83
2018-03-24T22:29:16.870Z,16.70
2018-03-24T22:31:43.203Z,17.37
2018-03-24T22:34:14.936Z,16.50
2018-03-24T22:36:44.216Z,17.03
2018-03-24T22:39:15.260Z,15.60
2018-03-24T22:41:43.140Z,14.33
2018-03-24T22:44:10.202Z,17.40
2018-03-24T22:46:36.413Z,16.90
2018-03-24T22:49:03.817Z,16.43
2018-03-24T22:51:30.035Z,14.90
2018-03-24T22:53:56.282Z,14.87
2018-03-24T22:56:22.425Z,13.63
2018-03-24T22:58:48.641Z,15.07
2018-03-24T23:01:19.853Z,14.40
2018-03-24T23:03:46.776Z,15.47
2018-03-24T23:06:13.021Z,15.50
2018-03-24T23:08:43.949Z,15.37
2018-03-24T23:11:13.866Z,15.07
2018-03-24T23:13:40.219Z,15.63
2018-03-24T23:16:06.494Z,15.17
2018-03-24T23:18:32.666Z,13.47
2018-03-24T23:20:59.752Z,14.10
2018-03-24T23:23:28.459Z,14.10
2018-03-24T23:25:58.116Z,14.97
2018-03-24T23:28:24.508Z,14.80
2018-03-24T23:30:57.341Z,13.93
2018-03-24T23:33:23.803Z,14.50
2018-03-24T23:35:49.953Z,13.70
2018-03-24T23:38:16.898Z,15.50
2018-03-24T23:40:45.073Z,13.83
2018-03-24T23:43:11.700Z,14.47
2018-03-24T23:45:37.886Z,15.03
2018-03-24T23:48:05.873Z,13.97
2018-03-24T23:50:32.280Z,14.77
2018-03-24T23:53:02.825Z,15.90
2018-03-24T23:55:40.452Z,14.27
2018-03-24T23:58:06.853Z,14.07
